sensor_id;sensor_type;location;lat;lon;timestamp;P1;durP1;ratioP1;P2;durP2;ratioP2
33148;SDS011;19506;51.040;3.856;2023-06-05T14:23:23;6.82;;;3.40;;
33148;SDS011;19506;51.040;3.856;2023-06-05T14:25:49;14.18;;;4.32;;
33148;SDS011;19506;51.040;3.856;2023-06-05T14:28:15;7.28;;;3.75;;
33148;SDS011;19506;51.040;3.856;2023-06-05T14:30:41;9.85;;;4.70;;
33148;SDS011;19506;51.040;3.856;2023-06-05T14:33:07;15.38;;;4.20;;
33148;SDS011;19506;51.040;3.856;2023-06-05T14:35:32;10.00;;;3.83;;
33148;SDS011;19506;51.040;3.856;2023-06-05T14:37:58;10.48;;;4.13;;
33148;SDS011;19506;51.040;3.856;2023-06-05T14:40:24;11.02;;;4.07;;
33148;SDS011;19506;51.040;3.856;2023-06-05T14:42:50;18.13;;;3.65;;
33148;SDS011;19506;51.040;3.856;2023-06-05T14:45:15;17.48;;;4.28;;
33148;SDS011;19506;51.040;3.856;2023-06-05T14:47:41;10.68;;;4.18;;
33148;SDS011;19506;51.040;3.856;2023-06-05T14:50:09;14.38;;;3.80;;
33148;SDS011;19506;51.040;3.856;2023-06-05T14:52:35;32.53;;;5.07;;
33148;SDS011;19506;51.040;3.856;2023-06-05T14:55:01;8.40;;;3.80;;
33148;SDS011;19506;51.040;3.856;2023-06-05T14:57:27;10.98;;;3.97;;
33148;SDS011;19506;51.040;3.856;2023-06-05T14:59:53;9.93;;;4.80;;
33148;SDS011;19506;51.040;3.856;2023-06-05T15:02:18;16.80;;;4.10;;
33148;SDS011;19506;51.040;3.856;2023-06-05T15:04:47;17.98;;;4.70;;
33148;SDS011;19506;51.040;3.856;2023-06-05T15:07:17;11.15;;;3.42;;
33148;SDS011;19506;51.040;3.856;2023-06-05T15:09:47;23.58;;;4.35;;
33148;SDS011;19506;51.040;3.856;2023-06-05T15:12:13;18.05;;;4.18;;
33148;SDS011;19506;51.040;3.856;2023-06-05T15:14:39;20.45;;;4.88;;
33148;SDS011;19506;51.040;3.856;2023-06-05T15:17:05;7.78;;;3.67;;
33148;SDS011;19506;51.040;3.856;2023-06-05T15:19:33;14.60;;;4.38;;
33148;SDS011;19506;51.040;3.856;2023-06-05T15:21:59;10.65;;;4.10;;
33148;SDS011;19506;51.040;3.856;2023-06-05T15:24:26;5.50;;;3.15;;
33148;SDS011;19506;51.040;3.856;2023-06-05T15:26:52;13.40;;;3.63;;
33148;SDS011;19506;51.040;3.856;2023-06-05T15:29:17;13.05;;;4.80;;
33148;SDS011;19506;51.040;3.856;2023-06-05T15:31:44;16.45;;;4.82;;
33148;SDS011;19506;51.040;3.856;2023-06-05T15:34:10;19.73;;;4.65;;
33148;SDS011;19506;51.040;3.856;2023-06-05T15:36:35;11.25;;;3.65;;
33148;SDS011;19506;51.040;3.856;2023-06-05T15:39:02;7.78;;;3.45;;
33148;SDS011;19506;51.040;3.856;2023-06-05T15:41:28;16.75;;;4.03;;
33148;SDS011;19506;51.040;3.856;2023-06-05T15:43:54;8.93;;;3.90;;
33148;SDS011;19506;51.040;3.856;2023-06-05T15:46:19;12.88;;;3.70;;
33148;SDS011;19506;51.040;3.856;2023-06-05T15:48:46;10.52;;;3.35;;
33148;SDS011;19506;51.040;3.856;2023-06-05T15:51:12;15.35;;;3.90;;
33148;SDS011;19506;51.040;3.856;2023-06-05T15:53:38;16.20;;;4.47;;
33148;SDS011;19506;51.040;3.856;2023-06-05T15:56:03;18.95;;;4.50;;
33148;SDS011;19506;51.040;3.856;2023-06-05T15:58:29;16.70;;;3.97;;
33148;SDS011;19506;51.040;3.856;2023-06-05T16:00:55;8.98;;;3.95;;
33148;SDS011;19506;51.040;3.856;2023-06-05T16:03:20;13.82;;;4.13;;
33148;SDS011;19506;51.040;3.856;2023-06-05T16:05:46;12.60;;;4.13;;
33148;SDS011;19506;51.040;3.856;2023-06-05T16:08:12;9.25;;;4.53;;
33148;SDS011;19506;51.040;3.856;2023-06-05T16:10:37;7.10;;;3.55;;
33148;SDS011;19506;51.040;3.856;2023-06-05T16:13:03;18.80;;;3.28;;
33148;SDS011;19506;51.040;3.856;2023-06-05T16:15:29;7.68;;;3.17;;
33148;SDS011;19506;51.040;3.856;2023-06-05T16:17:54;11.20;;;3.33;;
33148;SDS011;19506;51.040;3.856;2023-06-05T16:20:20;12.80;;;5.10;;
33148;SDS011;19506;51.040;3.856;2023-06-05T16:22:45;6.85;;;3.20;;
33148;SDS011;19506;51.040;3.856;2023-06-05T16:25:12;9.63;;;3.05;;
33148;SDS011;19506;51.040;3.856;2023-06-05T16:27:38;10.43;;;4.20;;
33148;SDS011;19506;51.040;3.856;2023-06-05T16:30:04;9.48;;;3.50;;
33148;SDS011;19506;51.040;3.856;2023-06-05T16:32:31;19.95;;;5.65;;
33148;SDS011;19506;51.040;3.856;2023-06-05T16:34:56;22.02;;;6.22;;
33148;SDS011;19506;51.040;3.856;2023-06-05T16:37:23;22.63;;;5.97;;
33148;SDS011;19506;51.040;3.856;2023-06-05T16:39:54;26.30;;;6.63;;
33148;SDS011;19506;51.040;3.856;2023-06-05T16:42:20;19.52;;;6.15;;
33148;SDS011;19506;51.040;3.856;2023-06-05T16:44:46;37.45;;;8.07;;
33148;SDS011;19506;51.040;3.856;2023-06-05T16:47:12;27.52;;;6.72;;
33148;SDS011;19506;51.040;3.856;2023-06-05T16:49:37;26.63;;;7.18;;
33148;SDS011;19506;51.040;3.856;2023-06-05T16:52:03;31.42;;;7.80;;
33148;SDS011;19506;51.040;3.856;2023-06-05T16:54:29;22.90;;;7.68;;
33148;SDS011;19506;51.040;3.856;2023-06-05T16:56:55;23.65;;;8.25;;
33148;SDS011;19506;51.040;3.856;2023-06-05T16:59:21;26.15;;;6.63;;
33148;SDS011;19506;51.040;3.856;2023-06-05T17:01:47;40.72;;;8.68;;
33148;SDS011;19506;51.040;3.856;2023-06-05T17:04:13;23.67;;;8.70;;
33148;SDS011;19506;51.040;3.856;2023-06-05T17:06:42;22.60;;;7.10;;
33148;SDS011;19506;51.040;3.856;2023-06-05T17:09:09;27.30;;;6.75;;
33148;SDS011;19506;51.040;3.856;2023-06-05T17:11:35;20.27;;;6.90;;
33148;SDS011;19506;51.040;3.856;2023-06-05T17:14:01;23.80;;;6.55;;
33148;SDS011;19506;51.040;3.856;2023-06-05T17:16:27;24.85;;;7.25;;
33148;SDS011;19506;51.040;3.856;2023-06-05T17:18:53;19.80;;;5.72;;
33148;SDS011;19506;51.040;3.856;2023-06-05T17:21:19;18.05;;;6.68;;
33148;SDS011;19506;51.040;3.856;2023-06-05T17:23:45;19.13;;;5.45;;
33148;SDS011;19506;51.040;3.856;2023-06-05T17:26:11;14.85;;;5.72;;
33148;SDS011;19506;51.040;3.856;2023-06-05T17:28:36;14.65;;;5.80;;
33148;SDS011;19506;51.040;3.856;2023-06-05T17:31:02;18.27;;;6.20;;
33148;SDS011;19506;51.040;3.856;2023-06-05T17:33:28;13.52;;;6.05;;
33148;SDS011;19506;51.040;3.856;2023-06-05T17:35:53;14.48;;;6.50;;
33148;SDS011;19506;51.040;3.856;2023-06-05T17:38:19;15.57;;;5.05;;
33148;SDS011;19506;51.040;3.856;2023-06-05T17:40:46;12.93;;;4.60;;
33148;SDS011;19506;51.040;3.856;2023-06-05T17:43:12;18.23;;;5.57;;
33148;SDS011;19506;51.040;3.856;2023-06-05T17:45:37;15.90;;;5.90;;
33148;SDS011;19506;51.040;3.856;2023-06-05T17:48:03;13.88;;;4.78;;
33148;SDS011;19506;51.040;3.856;2023-06-05T17:50:30;18.83;;;5.47;;
33148;SDS011;19506;51.040;3.856;2023-06-05T17:52:56;11.18;;;4.57;;
33148;SDS011;19506;51.040;3.856;2023-06-05T17:55:22;13.68;;;5.30;;
33148;SDS011;19506;51.040;3.856;2023-06-05T17:57:47;19.45;;;5.05;;
33148;SDS011;19506;51.040;3.856;2023-06-05T18:00:26;15.57;;;4.95;;
33148;SDS011;19506;51.040;3.856;2023-06-05T18:02:52;8.85;;;4.75;;
33148;SDS011;19506;51.040;3.856;2023-06-05T18:05:17;16.50;;;4.53;;
33148;SDS011;19506;51.040;3.856;2023-06-05T18:07:43;19.80;;;6.35;;
33148;SDS011;19506;51.040;3.856;2023-06-05T18:10:09;21.08;;;4.70;;
33148;SDS011;19506;51.040;3.856;2023-06-05T18:12:35;18.90;;;5.72;;
33148;SDS011;19506;51.040;3.856;2023-06-05T18:15:01;19.23;;;5.50;;
33148;SDS011;19506;51.040;3.856;2023-06-05T18:17:27;9.82;;;4.35;;
33148;SDS011;19506;51.040;3.856;2023-06-05T18:19:55;18.38;;;4.10;;
33148;SDS011;19506;51.040;3.856;2023-06-05T18:22:21;19.63;;;5.30;;
33148;SDS011;19506;51.040;3.856;2023-06-05T18:24:46;19.45;;;6.13;;
33148;SDS011;19506;51.040;3.856;2023-06-05T18:27:12;16.17;;;5.60;;
33148;SDS011;19506;51.040;3.856;2023-06-05T18:29:38;23.20;;;5.60;;
33148;SDS011;19506;51.040;3.856;2023-06-05T18:32:04;17.40;;;4.70;;
33148;SDS011;19506;51.040;3.856;2023-06-05T18:34:30;19.38;;;4.18;;
33148;SDS011;19506;51.040;3.856;2023-06-05T18:36:58;16.40;;;5.10;;
33148;SDS011;19506;51.040;3.856;2023-06-05T18:39:24;10.88;;;3.90;;
33148;SDS011;19506;51.040;3.856;2023-06-05T18:41:50;16.45;;;4.57;;
33148;SDS011;19506;51.040;3.856;2023-06-05T18:44:15;21.65;;;5.05;;
33148;SDS011;19506;51.040;3.856;2023-06-05T18:46:41;9.90;;;4.22;;
33148;SDS011;19506;51.040;3.856;2023-06-05T18:49:07;18.38;;;5.00;;
33148;SDS011;19506;51.040;3.856;2023-06-05T18:51:33;15.57;;;5.15;;
33148;SDS011;19506;51.040;3.856;2023-06-05T18:53:58;11.38;;;4.25;;
33148;SDS011;19506;51.040;3.856;2023-06-05T18:56:24;14.57;;;4.68;;
33148;SDS011;19506;51.040;3.856;2023-06-05T18:58:51;14.23;;;4.30;;
33148;SDS011;19506;51.040;3.856;2023-06-05T19:01:18;14.73;;;4.03;;
33148;SDS011;19506;51.040;3.856;2023-06-05T19:03:44;15.93;;;4.30;;
33148;SDS011;19506;51.040;3.856;2023-06-05T19:06:12;16.67;;;4.38;;
33148;SDS011;19506;51.040;3.856;2023-06-05T19:08:38;24.83;;;5.40;;
33148;SDS011;19506;51.040;3.856;2023-06-05T19:11:04;17.65;;;4.68;;
33148;SDS011;19506;51.040;3.856;2023-06-05T19:13:30;15.20;;;3.83;;
33148;SDS011;19506;51.040;3.856;2023-06-05T19:15:56;12.85;;;4.30;;
33148;SDS011;19506;51.040;3.856;2023-06-05T19:18:21;19.38;;;4.65;;
33148;SDS011;19506;51.040;3.856;2023-06-05T19:20:47;19.55;;;4.10;;
33148;SDS011;19506;51.040;3.856;2023-06-05T19:23:12;20.27;;;4.65;;
33148;SDS011;19506;51.040;3.856;2023-06-05T19:25:38;15.35;;;4.25;;
33148;SDS011;19506;51.040;3.856;2023-06-05T19:28:04;10.48;;;4.13;;
33148;SDS011;19506;51.040;3.856;2023-06-05T19:30:30;20.42;;;4.95;;
33148;SDS011;19506;51.040;3.856;2023-06-05T19:32:55;12.00;;;4.72;;
33148;SDS011;19506;51.040;3.856;2023-06-05T19:35:21;24.20;;;4.88;;
33148;SDS011;19506;51.040;3.856;2023-06-05T19:37:47;16.27;;;5.35;;
33148;SDS011;19506;51.040;3.856;2023-06-05T19:40:13;18.77;;;3.95;;
33148;SDS011;19506;51.040;3.856;2023-06-05T19:42:39;11.68;;;4.38;;
33148;SDS011;19506;51.040;3.856;2023-06-05T19:45:06;12.30;;;4.38;;
33148;SDS011;19506;51.040;3.856;2023-06-05T19:47:36;22.77;;;4.10;;
33148;SDS011;19506;51.040;3.856;2023-06-05T19:50:02;11.25;;;4.20;;
33148;SDS011;19506;51.040;3.856;2023-06-05T19:52:28;18.90;;;5.32;;
33148;SDS011;19506;51.040;3.856;2023-06-05T19:54:54;18.02;;;6.10;;
33148;SDS011;19506;51.040;3.856;2023-06-05T19:57:21;20.40;;;4.03;;
33148;SDS011;19506;51.040;3.856;2023-06-05T19:59:47;15.68;;;4.43;;
33148;SDS011;19506;51.040;3.856;2023-06-05T20:02:14;17.75;;;5.35;;
33148;SDS011;19506;51.040;3.856;2023-06-05T20:04:40;22.10;;;4.53;;
33148;SDS011;19506;51.040;3.856;2023-06-05T20:07:06;7.55;;;3.97;;
33148;SDS011;19506;51.040;3.856;2023-06-05T20:09:31;14.82;;;4.30;;
33148;SDS011;19506;51.040;3.856;2023-06-05T20:11:57;27.55;;;5.50;;
33148;SDS011;19506;51.040;3.856;2023-06-05T20:14:23;10.27;;;4.20;;
33148;SDS011;19506;51.040;3.856;2023-06-05T20:16:49;21.77;;;6.20;;
33148;SDS011;19506;51.040;3.856;2023-06-05T20:19:15;11.70;;;3.83;;
33148;SDS011;19506;51.040;3.856;2023-06-05T20:21:42;8.70;;;3.88;;
33148;SDS011;19506;51.040;3.856;2023-06-05T20:24:08;11.55;;;4.38;;
33148;SDS011;19506;51.040;3.856;2023-06-05T20:26:34;13.02;;;3.92;;
33148;SDS011;19506;51.040;3.856;2023-06-05T20:29:00;12.05;;;4.18;;
33148;SDS011;19506;51.040;3.856;2023-06-05T20:31:26;15.93;;;3.85;;
33148;SDS011;19506;51.040;3.856;2023-06-05T20:33:52;14.25;;;3.65;;
33148;SDS011;19506;51.040;3.856;2023-06-05T20:36:20;17.55;;;4.40;;
33148;SDS011;19506;51.040;3.856;2023-06-05T20:38:47;15.98;;;5.00;;
33148;SDS011;19506;51.040;3.856;2023-06-05T20:41:13;13.82;;;3.53;;
33148;SDS011;19506;51.040;3.856;2023-06-05T20:43:38;14.50;;;3.83;;
33148;SDS011;19506;51.040;3.856;2023-06-05T20:46:09;10.13;;;3.85;;
33148;SDS011;19506;51.040;3.856;2023-06-05T20:48:35;15.93;;;4.68;;
33148;SDS011;19506;51.040;3.856;2023-06-05T20:51:06;19.08;;;6.15;;
33148;SDS011;19506;51.040;3.856;2023-06-05T20:53:34;17.15;;;4.40;;
